Time;durP1;ratioP1;P1;durP2;ratioP2;P2;SDS_P1;SDS_P2;PMS_P1;PMS_P2;Temp;Humidity;BMP_temperature;BMP_pressure;BME280_temperature;BME280_humidity;BME280_pressure;Samples;Min_cycle;Max_cycle;Signal;HPM_P1;HPM_P2
2023/05/26 00:00:18;;;;;;;;;;;;;;;10.59;78.25;103053.03;20792017;28;20028;-60
2023/05/26 00:10:40;;;;;;;;;;;;;;;10.52;78.40;103050.41;20785520;28;19937;-55
2023/05/26 00:21:03;;;;;;;;;;;;;;;10.36;79.02;103059.81;20794437;28;19925;-53
2023/05/26 00:31:24;;;;;;;;;;;;;;;10.22;79.76;103061.41;20786729;28;19933;-55
2023/05/26 00:41:46;;;;;;;;;;;;;;;10.19;79.62;103051.03;20773867;28;19926;-54
2023/05/26 00:52:07;;;;;;;;;;;;;;;10.11;79.75;103057.88;20770106;28;19940;-55
2023/05/26 01:02:29;;;;;;;;;;;;;;;10.08;79.29;103057.81;20782904;28;19929;-55
2023/05/26 01:12:58;;;;;;;;;;;;;;;9.97;80.27;103059.47;20777153;28;19932;-55
2023/05/26 01:23:22;;;;;;;;;;;;;;;9.91;79.84;103054.22;20783076;28;20064;-56
2023/05/26 01:33:43;;;;;;;;;;;;;;;9.85;79.87;103074.88;20770927;28;20545;-56
2023/05/26 01:44:26;;;;;;;;;;;;;;;9.71;80.15;103081.63;20778958;28;20015;-55
2023/05/26 01:54:50;;;;;;;;;;;;;;;9.66;80.90;103097.09;20780697;28;19963;-56
2023/05/26 02:05:11;;;;;;;;;;;;;;;9.55;81.15;103095.25;20758700;28;19943;-55
2023/05/26 02:15:33;;;;;;;;;;;;;;;9.54;80.94;103088.34;20764171;28;19925;-56
2023/05/26 02:25:54;;;;;;;;;;;;;;;9.55;80.63;103100.41;20766390;28;20300;-56
2023/05/26 02:36:16;;;;;;;;;;;;;;;9.45;81.38;103098.59;20770220;28;19934;-56
2023/05/26 02:46:37;;;;;;;;;;;;;;;9.43;81.23;103102.88;20779102;28;19936;-56
2023/05/26 02:56:59;;;;;;;;;;;;;;;9.39;81.48;103103.69;20787355;28;19929;-56
2023/05/26 03:07:22;;;;;;;;;;;;;;;9.33;80.98;103106.19;20789285;28;19925;-54
2023/05/26 03:17:44;;;;;;;;;;;;;;;9.26;82.09;103101.78;20783521;28;19979;-55
2023/05/26 03:28:05;;;;;;;;;;;;;;;9.16;81.94;103110.31;20789655;28;20384;-56
2023/05/26 03:38:27;;;;;;;;;;;;;;;9.13;81.69;103124.03;20783126;28;19932;-56
2023/05/26 03:48:48;;;;;;;;;;;;;;;9.09;81.75;103124.81;20792885;28;20343;-55
2023/05/26 03:59:10;;;;;;;;;;;;;;;9.10;82.14;103119.69;20762792;28;19940;-55
2023/05/26 04:09:32;;;;;;;;;;;;;;;9.12;82.00;103123.16;20787420;28;19929;-55
2023/05/26 04:19:53;;;;;;;;;;;;;;;9.14;84.31;103134.38;20779553;28;19929;-54
2023/05/26 04:30:16;;;;;;;;;;;;;;;9.25;82.28;103131.06;20790562;28;19932;-55
2023/05/26 04:40:39;;;;;;;;;;;;;;;9.38;81.49;103140.69;20785841;28;19984;-56
2023/05/26 04:51:00;;;;;;;;;;;;;;;9.49;82.65;103152.91;20791231;28;19937;-56
2023/05/26 05:01:22;;;;;;;;;;;;;;;9.72;82.16;103151.47;20785769;28;20020;-56
2023/05/26 05:11:44;;;;;;;;;;;;;;;10.04;80.63;103164.69;20766284;28;19925;-55
2023/05/26 05:22:05;;;;;;;;;;;;;;;10.35;81.44;103178.81;20765868;28;19925;-55
2023/05/26 05:32:27;;;;;;;;;;;;;;;10.58;78.41;103183.34;20777740;28;20036;-57
2023/05/26 05:42:48;;;;;;;;;;;;;;;10.80;78.40;103198.19;20781320;28;19925;-56
2023/05/26 05:53:10;;;;;;;;;;;;;;;10.96;77.17;103194.84;20771425;28;19929;-56
2023/05/26 06:03:31;;;;;;;;;;;;;;;11.23;75.17;103203.63;20772688;28;19956;-57
2023/05/26 06:13:53;;;;;;;;;;;;;;;11.36;75.05;103210.59;20775395;28;19936;-56
2023/05/26 06:24:17;;;;;;;;;;;;;;;11.56;74.15;103203.78;20760839;28;19929;-56
2023/05/26 06:34:39;;;;;;;;;;;;;;;11.95;73.76;103193.59;20781747;28;19930;-54
2023/05/26 06:45:00;;;;;;;;;;;;;;;12.25;74.36;103204.00;20791007;28;20288;-56
2023/05/26 06:55:21;;;;;;;;;;;;;;;12.35;72.58;103210.97;20801377;28;19936;-55
2023/05/26 07:05:45;;;;;;;;;;;;;;;12.46;72.33;103221.34;20783047;28;20295;-54
2023/05/26 07:16:17;;;;;;;;;;;;;;;12.64;72.92;103224.81;20771468;28;20479;-55
2023/05/26 07:26:38;;;;;;;;;;;;;;;12.77;70.87;103242.16;20784221;28;20074;-55
2023/05/26 07:37:00;;;;;;;;;;;;;;;12.62;71.39;103255.13;20792295;28;19940;-55
2023/05/26 07:47:22;;;;;;;;;;;;;;;12.79;70.94;103245.63;20777596;28;19925;-54
2023/05/26 07:57:43;;;;;;;;;;;;;;;12.88;70.80;103248.22;20778871;28;20016;-55
2023/05/26 08:08:05;;;;;;;;;;;;;;;12.94;70.26;103244.75;20777228;28;19925;-55
2023/05/26 08:18:27;;;;;;;;;;;;;;;13.00;70.95;103250.78;20772523;28;19940;-55
2023/05/26 08:28:49;;;;;;;;;;;;;;;13.02;70.09;103249.09;20796660;28;19926;-55
2023/05/26 08:39:10;;;;;;;;;;;;;;;13.20;69.91;103244.75;20779672;28;19929;-55
2023/05/26 08:49:36;;;;;;;;;;;;;;;13.38;68.57;103248.16;20784921;28;19930;-55
2023/05/26 08:59:57;;;;;;;;;;;;;;;13.85;68.46;103234.97;20772141;28;19925;-55
2023/05/26 09:10:19;;;;;;;;;;;;;;;14.20;67.60;103238.25;20764703;28;19926;-55
2023/05/26 09:20:41;;;;;;;;;;;;;;;14.13;67.59;103247.84;20759796;28;19933;-56
2023/05/26 09:31:08;;;;;;;;;;;;;;;14.33;67.75;103255.56;20782080;28;20393;-55
2023/05/26 09:41:36;;;;;;;;;;;;;;;14.50;66.53;103238.09;20793499;28;19936;-56
2023/05/26 09:51:58;;;;;;;;;;;;;;;14.68;64.72;103255.31;20790441;28;19940;-57
2023/05/26 10:02:33;;;;;;;;;;;;;;;14.62;65.85;103252.75;20769005;28;19947;-56
2023/05/26 10:12:56;;;;;;;;;;;;;;;15.10;64.95;103237.56;20771638;28;19980;-56
2023/05/26 10:23:24;;;;;;;;;;;;;;;15.52;63.22;103243.19;20772823;28;20058;-56
2023/05/26 10:33:46;;;;;;;;;;;;;;;15.44;65.76;103252.88;20785799;28;19948;-56
2023/05/26 10:44:27;;;;;;;;;;;;;;;15.85;63.98;103235.84;20773210;28;19969;-56
2023/05/26 10:54:49;;;;;;;;;;;;;;;16.05;63.06;103238.16;20771904;28;19936;-57
2023/05/26 11:05:30;;;;;;;;;;;;;;;16.22;61.60;103241.41;20765007;28;19925;-57
2023/05/26 11:16:08;;;;;;;;;;;;;;;16.18;62.66;103229.28;20776363;28;19925;-57
2023/05/26 11:26:31;;;;;;;;;;;;;;;16.16;62.46;103231.03;20790248;28;19932;-57
2023/05/26 11:36:53;;;;;;;;;;;;;;;16.27;63.39;103231.75;20785768;28;20000;-57
2023/05/26 11:47:20;;;;;;;;;;;;;;;16.32;62.70;103206.41;20790537;28;19925;-55
2023/05/26 11:57:44;;;;;;;;;;;;;;;16.44;62.75;103208.84;20779296;28;20429;-54
2023/05/26 12:08:07;;;;;;;;;;;;;;;16.20;62.15;103209.22;20784356;28;19925;-55
2023/05/26 12:18:30;;;;;;;;;;;;;;;16.02;63.73;103215.56;20789529;28;20030;-53
2023/05/26 12:29:06;;;;;;;;;;;;;;;15.91;62.97;103204.38;20767699;28;19948;-56
2023/05/26 12:39:28;;;;;;;;;;;;;;;15.99;64.99;103193.84;20777527;28;20192;-55
2023/05/26 12:49:50;;;;;;;;;;;;;;;16.20;65.10;103197.88;20780066;28;20035;-55
2023/05/26 13:00:12;;;;;;;;;;;;;;;16.05;64.28;103206.81;20779343;28;19939;-55
2023/05/26 13:10:35;;;;;;;;;;;;;;;15.95;65.09;103194.78;20779663;28;19972;-56
2023/05/26 13:20:55;;;;;;;;;;;;;;;15.98;65.04;103192.13;20780785;28;20303;-57
2023/05/26 13:31:16;;;;;;;;;;;;;;;16.22;64.14;103183.94;20784712;28;19928;-56
2023/05/26 13:41:36;;;;;;;;;;;;;;;16.16;63.47;103178.78;20788431;28;19929;-56
2023/05/26 13:52:01;;;;;;;;;;;;;;;16.05;65.45;103180.69;20782544;28;19925;-56
2023/05/26 14:02:22;;;;;;;;;;;;;;;15.99;65.22;103186.00;20780082;28;19930;-56
2023/05/26 14:12:42;;;;;;;;;;;;;;;16.10;65.61;103179.75;20768723;28;20039;-56
2023/05/26 14:23:04;;;;;;;;;;;;;;;16.06;65.76;103171.97;20760303;28;19952;-56
2023/05/26 14:33:25;;;;;;;;;;;;;;;16.09;64.88;103177.16;20765392;28;19929;-56
2023/05/26 14:43:47;;;;;;;;;;;;;;;16.11;65.77;103178.84;20768517;28;19933;-56
2023/05/26 14:54:08;;;;;;;;;;;;;;;15.88;64.07;103183.56;20784251;28;19926;-56
2023/05/26 15:04:31;;;;;;;;;;;;;;;15.91;64.69;103182.66;20786633;28;20365;-56
2023/05/26 15:14:53;;;;;;;;;;;;;;;15.83;65.40;103179.28;20787300;28;20036;-56
2023/05/26 15:25:14;;;;;;;;;;;;;;;15.77;62.06;103172.38;20785994;28;20004;-56
2023/05/26 15:35:36;;;;;;;;;;;;;;;15.75;65.07;103175.91;20795413;28;19948;-56
2023/05/26 15:45:57;;;;;;;;;;;;;;;15.71;63.89;103185.53;20798410;28;20332;-57
2023/05/26 15:56:19;;;;;;;;;;;;;;;15.55;64.71;103180.50;20777849;28;19936;-55
2023/05/26 16:06:40;;;;;;;;;;;;;;;15.70;61.64;103189.03;20793349;28;20079;-55
2023/05/26 16:17:02;;;;;;;;;;;;;;;15.92;61.30;103193.06;20797550;28;20292;-55
2023/05/26 16:27:24;;;;;;;;;;;;;;;16.31;62.31;103181.16;20772309;28;19983;-55
2023/05/26 16:37:45;;;;;;;;;;;;;;;16.52;57.84;103178.22;20784733;28;19959;-55
2023/05/26 16:48:06;;;;;;;;;;;;;;;16.62;61.47;103179.81;20796590;28;20336;-55
2023/05/26 16:58:28;;;;;;;;;;;;;;;16.47;59.69;103185.28;20781241;28;20008;-54
2023/05/26 17:08:50;;;;;;;;;;;;;;;16.49;60.96;103178.28;20795799;28;19926;-55
2023/05/26 17:19:11;;;;;;;;;;;;;;;16.21;63.03;103176.97;20787768;28;20040;-56
2023/05/26 17:29:33;;;;;;;;;;;;;;;15.90;63.34;103170.47;20764047;28;19925;-55
2023/05/26 17:39:54;;;;;;;;;;;;;;;15.60;65.82;103176.13;20783629;28;19930;-55
2023/05/26 17:50:16;;;;;;;;;;;;;;;15.39;65.72;103177.22;20785839;28;19983;-56
2023/05/26 18:00:37;;;;;;;;;;;;;;;15.25;65.34;103168.69;20790447;28;19996;-55
2023/05/26 18:10:59;;;;;;;;;;;;;;;15.02;62.82;103179.38;20777164;28;19943;-54
2023/05/26 18:21:20;;;;;;;;;;;;;;;14.86;67.10;103175.22;20783243;28;19929;-55
2023/05/26 18:31:42;;;;;;;;;;;;;;;14.73;67.01;103181.41;20781915;28;20561;-55
2023/05/26 18:42:03;;;;;;;;;;;;;;;14.54;64.91;103166.81;20800285;28;19945;-56
2023/05/26 18:52:25;;;;;;;;;;;;;;;14.49;66.89;103183.34;20791876;28;19972;-55
2023/05/26 19:02:46;;;;;;;;;;;;;;;14.30;66.74;103185.28;20791570;28;19944;-56
2023/05/26 19:13:08;;;;;;;;;;;;;;;14.20;66.94;103186.16;20782493;28;19933;-56
2023/05/26 19:23:30;;;;;;;;;;;;;;;14.12;68.04;103183.59;20801377;28;19936;-56
2023/05/26 19:33:51;;;;;;;;;;;;;;;14.08;68.21;103181.06;20783904;28;19991;-56
2023/05/26 19:44:16;;;;;;;;;;;;;;;14.05;68.48;103196.69;20784326;28;20008;-56
2023/05/26 19:54:39;;;;;;;;;;;;;;;13.98;68.44;103195.84;20790288;28;20074;-55
2023/05/26 20:05:00;;;;;;;;;;;;;;;13.90;69.02;103191.56;20791928;28;20643;-54
2023/05/26 20:15:22;;;;;;;;;;;;;;;13.81;68.39;103189.88;20767591;28;20139;-55
2023/05/26 20:25:43;;;;;;;;;;;;;;;13.75;68.61;103191.66;20786786;28;19925;-56
2023/05/26 20:36:05;;;;;;;;;;;;;;;13.65;68.91;103189.97;20789231;28;19925;-56
2023/05/26 20:46:27;;;;;;;;;;;;;;;13.61;68.87;103183.03;20783604;28;20400;-56
2023/05/26 20:56:48;;;;;;;;;;;;;;;13.53;68.56;103182.22;20774996;28;19936;-57
2023/05/26 21:07:10;;;;;;;;;;;;;;;13.48;69.90;103181.38;20772101;28;19925;-55
2023/05/26 21:17:31;;;;;;;;;;;;;;;13.36;69.50;103186.63;20779068;28;19987;-56
2023/05/26 21:27:53;;;;;;;;;;;;;;;13.29;70.48;103174.50;20765899;28;20381;-56
2023/05/26 21:38:16;;;;;;;;;;;;;;;13.07;71.22;103187.56;20766030;28;20308;-56
2023/05/26 21:48:38;;;;;;;;;;;;;;;12.93;71.51;103180.63;20791847;28;19924;-56
2023/05/26 21:58:59;;;;;;;;;;;;;;;12.86;72.10;103186.69;20777362;28;20384;-56
2023/05/26 22:09:21;;;;;;;;;;;;;;;12.80;73.33;103190.16;20773622;28;19960;-56
2023/05/26 22:19:42;;;;;;;;;;;;;;;12.69;72.91;103180.69;20766108;28;19929;-56
2023/05/26 22:30:04;;;;;;;;;;;;;;;12.57;72.97;103188.47;20770540;28;19944;-57
2023/05/26 22:40:25;;;;;;;;;;;;;;;12.36;73.93;103185.88;20779289;28;20443;-55
2023/05/26 22:50:47;;;;;;;;;;;;;;;12.27;73.83;103191.91;20770801;28;20332;-57
2023/05/26 23:01:08;;;;;;;;;;;;;;;12.04;74.50;103180.63;20782775;28;20391;-56
2023/05/26 23:11:30;;;;;;;;;;;;;;;11.97;75.16;103177.19;20777512;28;20254;-56
2023/05/26 23:21:52;;;;;;;;;;;;;;;11.94;75.49;103181.47;20783047;28;19957;-56
2023/05/26 23:32:13;;;;;;;;;;;;;;;11.85;76.21;103176.25;20797678;28;19929;-55
2023/05/26 23:42:35;;;;;;;;;;;;;;;11.73;76.01;103165.84;20782703;28;20041;-56
2023/05/26 23:52:56;;;;;;;;;;;;;;;11.64;76.72;103156.31;20791323;28;19925;-56
